Time;durP1;ratioP1;P1;durP2;ratioP2;P2;SDS_P1;SDS_P2;PMS_P1;PMS_P2;Temp;Humidity;BMP_temperature;BMP_pressure;BME280_temperature;BME280_humidity;BME280_pressure;Samples;Min_cycle;Max_cycle;Signal;HPM_P1;HPM_P2
2022/08/03 00:00:29;;;;;;;3.90;3.43;;;;;;;;;;5094421;28;20451;-73
2022/08/03 00:02:56;;;;;;;5.87;4.00;;;;;;;;;;5094387;28;20486;-73
2022/08/03 00:05:25;;;;;;;5.67;3.50;;;;;;;;;;5094288;28;20464;-73
2022/08/03 00:07:52;;;;;;;3.10;2.80;;;;;;;;;;5094135;28;20459;-73
2022/08/03 00:10:19;;;;;;;4.20;3.67;;;;;;;;;;5094151;28;20462;-73
2022/08/03 00:12:46;;;;;;;3.57;3.17;;;;;;;;;;5094161;28;20470;-73
2022/08/03 00:15:13;;;;;;;3.63;2.60;;;;;;;;;;5094085;28;20955;-73
2022/08/03 00:17:40;;;;;;;5.53;3.10;;;;;;;;;;5094238;28;20447;-73
2022/08/03 00:20:08;;;;;;;3.57;3.27;;;;;;;;;;5094317;28;20447;-73
2022/08/03 00:22:36;;;;;;;3.10;2.80;;;;;;;;;;5093931;28;20495;-73
2022/08/03 00:25:03;;;;;;;4.00;2.93;;;;;;;;;;5093928;28;20455;-73
2022/08/03 00:27:31;;;;;;;4.20;2.67;;;;;;;;;;5094061;28;20461;-73
2022/08/03 00:29:59;;;;;;;2.77;2.57;;;;;;;;;;5093739;28;20454;-73
2022/08/03 00:32:26;;;;;;;3.00;2.70;;;;;;;;;;5093885;28;20462;-73
2022/08/03 00:34:53;;;;;;;3.43;2.80;;;;;;;;;;5093727;28;20451;-73
2022/08/03 00:37:20;;;;;;;5.23;3.13;;;;;;;;;;5093801;28;20977;-73
2022/08/03 00:39:48;;;;;;;2.70;2.40;;;;;;;;;;5094123;28;20446;-73
2022/08/03 00:42:16;;;;;;;3.80;3.13;;;;;;;;;;5093640;28;20487;-73
2022/08/03 00:44:44;;;;;;;5.17;2.70;;;;;;;;;;5093694;28;20959;-73
2022/08/03 00:47:11;;;;;;;3.40;2.50;;;;;;;;;;5093787;28;20458;-73
2022/08/03 00:49:39;;;;;;;3.20;2.70;;;;;;;;;;5093937;28;20455;-73
2022/08/03 00:52:07;;;;;;;3.83;3.03;;;;;;;;;;5093615;28;20971;-73
2022/08/03 00:54:34;;;;;;;2.83;2.63;;;;;;;;;;5093281;28;20455;-73
2022/08/03 00:57:03;;;;;;;4.37;2.80;;;;;;;;;;5093690;28;20462;-73
2022/08/03 00:59:30;;;;;;;6.00;3.60;;;;;;;;;;5093720;28;20959;-73
2022/08/03 01:01:58;;;;;;;3.30;2.20;;;;;;;;;;5093417;28;21007;-73
2022/08/03 01:04:25;;;;;;;3.00;2.60;;;;;;;;;;5093074;28;20481;-73
2022/08/03 01:06:59;;;;;;;3.40;3.10;;;;;;;;;;5093489;28;20450;-73
2022/08/03 01:09:32;;;;;;;3.40;3.10;;;;;;;;;;5093444;28;20447;-73
2022/08/03 01:12:03;;;;;;;4.50;3.23;;;;;;;;;;5093582;28;20812;-73
2022/08/03 01:14:35;;;;;;;3.53;3.17;;;;;;;;;;5093178;28;20447;-73
2022/08/03 01:17:05;;;;;;;3.30;3.00;;;;;;;;;;5093357;28;20456;-73
2022/08/03 01:19:39;;;;;;;3.77;2.80;;;;;;;;;;5093207;28;20454;-73
2022/08/03 01:22:15;;;;;;;7.90;3.10;;;;;;;;;;5093300;28;20998;-73
2022/08/03 01:24:47;;;;;;;4.63;2.90;;;;;;;;;;5093039;28;20485;-73
2022/08/03 01:27:18;;;;;;;3.60;2.73;;;;;;;;;;5093023;28;20805;-73
2022/08/03 01:29:59;;;;;;;4.50;2.97;;;;;;;;;;5092929;28;20459;-73
2022/08/03 01:32:32;;;;;;;3.00;2.70;;;;;;;;;;5093111;28;20470;-73
2022/08/03 01:35:00;;;;;;;4.33;2.90;;;;;;;;;;5092948;28;20451;-73
2022/08/03 01:37:30;;;;;;;4.20;2.60;;;;;;;;;;5093125;28;20458;-73
2022/08/03 01:39:58;;;;;;;3.10;2.70;;;;;;;;;;5093134;28;20795;-73
2022/08/03 01:42:25;;;;;;;3.17;2.87;;;;;;;;;;5092728;28;20497;-73
2022/08/03 01:44:53;;;;;;;3.13;2.73;;;;;;;;;;5092920;28;20952;-73
2022/08/03 01:47:23;;;;;;;3.63;3.33;;;;;;;;;;5092916;28;20570;-73
2022/08/03 01:49:51;;;;;;;3.20;2.90;;;;;;;;;;5093007;28;20458;-73
2022/08/03 01:52:19;;;;;;;5.00;3.43;;;;;;;;;;5092773;28;20470;-73
2022/08/03 01:54:49;;;;;;;3.10;2.80;;;;;;;;;;5092733;28;20481;-73
2022/08/03 01:57:17;;;;;;;2.60;2.20;;;;;;;;;;5092930;28;20453;-73
2022/08/03 01:59:45;;;;;;;3.60;2.43;;;;;;;;;;5093315;28;20442;-73
2022/08/03 02:02:14;;;;;;;3.30;2.93;;;;;;;;;;5092695;28;20548;-73
2022/08/03 02:04:43;;;;;;;3.23;2.83;;;;;;;;;;5092865;28;20453;-73
2022/08/03 02:07:11;;;;;;;5.20;3.40;;;;;;;;;;5092974;28;20454;-73
2022/08/03 02:09:39;;;;;;;2.67;2.40;;;;;;;;;;5092912;28;20823;-73
2022/08/03 02:12:08;;;;;;;3.90;2.50;;;;;;;;;;5093031;28;20470;-73
2022/08/03 02:14:36;;;;;;;3.30;2.43;;;;;;;;;;5092528;28;20469;-73
2022/08/03 02:17:04;;;;;;;3.37;2.60;;;;;;;;;;5092980;28;20455;-73
2022/08/03 02:19:31;;;;;;;3.23;2.43;;;;;;;;;;5092608;28;20450;-73
2022/08/03 02:21:59;;;;;;;3.20;2.90;;;;;;;;;;5092448;28;20557;-73
2022/08/03 02:24:27;;;;;;;2.43;2.20;;;;;;;;;;5092375;28;20450;-73
2022/08/03 02:26:56;;;;;;;3.23;2.93;;;;;;;;;;5092707;28;20446;-73
2022/08/03 02:29:25;;;;;;;9.50;7.87;;;;;;;;;;5092057;28;20978;-73
2022/08/03 02:31:52;;;;;;;3.80;3.50;;;;;;;;;;5093883;28;20450;-73
2022/08/03 02:34:21;;;;;;;4.53;2.53;;;;;;;;;;5095936;28;20461;-73
2022/08/03 02:36:52;;;;;;;3.00;2.70;;;;;;;;;;5096192;28;20461;-73
2022/08/03 02:39:22;;;;;;;3.00;2.70;;;;;;;;;;5096291;28;20943;-73
2022/08/03 02:41:51;;;;;;;2.80;2.47;;;;;;;;;;5096019;28;20453;-73
2022/08/03 02:44:21;;;;;;;3.77;3.10;;;;;;;;;;5095707;28;20832;-73
2022/08/03 02:46:49;;;;;;;5.00;3.03;;;;;;;;;;5096210;28;21045;-73
2022/08/03 02:49:18;;;;;;;3.37;2.80;;;;;;;;;;5096087;28;20451;-73
2022/08/03 02:51:47;;;;;;;3.17;2.53;;;;;;;;;;5096639;28;21016;-73
2022/08/03 02:54:17;;;;;;;3.90;3.50;;;;;;;;;;5095727;28;20455;-73
2022/08/03 02:56:45;;;;;;;3.57;3.23;;;;;;;;;;5095971;28;20457;-73
2022/08/03 02:59:13;;;;;;;4.13;3.23;;;;;;;;;;5095858;28;20451;-73
2022/08/03 03:01:40;;;;;;;6.57;3.90;;;;;;;;;;5095972;28;20447;-73
2022/08/03 03:04:08;;;;;;;6.97;4.40;;;;;;;;;;5095356;28;20486;-73
2022/08/03 03:06:36;;;;;;;10.43;5.57;;;;;;;;;;5095511;28;20443;-73
2022/08/03 03:09:03;;;;;;;15.73;5.30;;;;;;;;;;5095562;28;20618;-73
2022/08/03 03:11:31;;;;;;;7.10;3.73;;;;;;;;;;5095553;28;20488;-73
2022/08/03 03:14:00;;;;;;;9.60;5.13;;;;;;;;;;5095215;28;20475;-73
2022/08/03 03:16:29;;;;;;;5.87;3.70;;;;;;;;;;5095462;28;20458;-73
2022/08/03 03:18:56;;;;;;;7.67;4.00;;;;;;;;;;5095671;28;20447;-73
2022/08/03 03:21:24;;;;;;;6.13;3.90;;;;;;;;;;5095201;28;20477;-73
2022/08/03 03:23:51;;;;;;;4.97;3.37;;;;;;;;;;5095120;28;20495;-73
2022/08/03 03:26:18;;;;;;;5.43;3.80;;;;;;;;;;5095144;28;20466;-73
2022/08/03 03:28:45;;;;;;;10.20;6.00;;;;;;;;;;5095259;28;20457;-73
2022/08/03 03:31:14;;;;;;;5.40;3.40;;;;;;;;;;5094683;28;20451;-73
2022/08/03 03:33:41;;;;;;;4.50;3.90;;;;;;;;;;5094979;28;20471;-72
2022/08/03 03:36:09;;;;;;;7.13;4.57;;;;;;;;;;5095080;28;20474;-72
2022/08/03 03:38:37;;;;;;;4.60;3.90;;;;;;;;;;5094967;28;20512;-72
2022/08/03 03:41:05;;;;;;;6.03;3.50;;;;;;;;;;5094902;28;20461;-72
2022/08/03 03:43:32;;;;;;;4.20;3.53;;;;;;;;;;5093261;28;20991;-73
2022/08/03 03:45:59;;;;;;;5.17;3.47;;;;;;;;;;5095050;28;20466;-72
2022/08/03 03:48:28;;;;;;;3.40;2.90;;;;;;;;;;5094718;28;20447;-72
2022/08/03 03:50:56;;;;;;;8.40;3.87;;;;;;;;;;5094737;28;20944;-72
2022/08/03 03:53:24;;;;;;;6.77;3.20;;;;;;;;;;5094500;28;20539;-72
2022/08/03 03:55:52;;;;;;;4.57;4.13;;;;;;;;;;5094621;28;20446;-72
2022/08/03 03:58:20;;;;;;;4.40;4.00;;;;;;;;;;5094693;28;20454;-72
2022/08/03 04:00:48;;;;;;;5.90;3.53;;;;;;;;;;5094640;28;20459;-72
2022/08/03 04:03:15;;;;;;;6.57;4.60;;;;;;;;;;5094327;28;20529;-72
2022/08/03 04:11:15;;;;;;;3.70;3.40;;;;;;;;;;5094377;28;20561;-72
2022/08/03 04:13:44;;;;;;;4.90;3.70;;;;;;;;;;5094240;28;20469;-72
2022/08/03 04:16:15;;;;;;;4.80;3.17;;;;;;;;;;5094160;28;20462;-72
2022/08/03 04:18:43;;;;;;;5.03;3.80;;;;;;;;;;5094201;28;20454;-72
2022/08/03 04:21:13;;;;;;;7.60;6.60;;;;;;;;;;5094133;28;20451;-72
2022/08/03 04:23:42;;;;;;;7.80;4.80;;;;;;;;;;5093670;28;20497;-72
2022/08/03 04:26:10;;;;;;;9.07;3.70;;;;;;;;;;5094253;28;20451;-72
2022/08/03 04:28:40;;;;;;;5.33;3.87;;;;;;;;;;5093881;28;20447;-72
2022/08/03 04:31:07;;;;;;;3.97;2.93;;;;;;;;;;5093473;28;20450;-72
2022/08/03 04:33:36;;;;;;;5.27;3.40;;;;;;;;;;5093792;28;20465;-72
2022/08/03 04:36:04;;;;;;;3.70;3.20;;;;;;;;;;5094058;28;20450;-72
2022/08/03 04:38:34;;;;;;;9.00;3.00;;;;;;;;;;5093812;28;20446;-72
2022/08/03 04:41:02;;;;;;;3.23;2.53;;;;;;;;;;5093789;28;20451;-72
2022/08/03 04:43:30;;;;;;;10.53;3.07;;;;;;;;;;5093138;28;20501;-72
2022/08/03 04:45:57;;;;;;;4.00;2.80;;;;;;;;;;5093729;28;20450;-72
2022/08/03 04:48:25;;;;;;;3.80;2.93;;;;;;;;;;5093933;28;20447;-72
2022/08/03 04:50:52;;;;;;;3.20;2.90;;;;;;;;;;5093620;28;20932;-72
2022/08/03 04:53:19;;;;;;;6.80;2.97;;;;;;;;;;5093387;28;20466;-72
2022/08/03 04:55:48;;;;;;;4.57;2.60;;;;;;;;;;5093343;28;20453;-72
2022/08/03 04:58:15;;;;;;;2.80;2.50;;;;;;;;;;5093333;28;20468;-72
2022/08/03 05:00:42;;;;;;;2.60;2.40;;;;;;;;;;5093673;28;20947;-72
2022/08/03 05:03:09;;;;;;;3.33;3.03;;;;;;;;;;5093423;28;20493;-73
2022/08/03 05:05:37;;;;;;;4.77;2.80;;;;;;;;;;5093077;28;20516;-73
2022/08/03 05:08:04;;;;;;;3.20;2.90;;;;;;;;;;5093468;28;20446;-73
2022/08/03 05:10:31;;;;;;;2.50;2.30;;;;;;;;;;5093355;28;20450;-73
2022/08/03 05:12:59;;;;;;;4.57;3.03;;;;;;;;;;5093285;28;20462;-73
2022/08/03 05:15:27;;;;;;;2.67;2.30;;;;;;;;;;5093014;28;20454;-73
2022/08/03 05:17:54;;;;;;;2.80;2.20;;;;;;;;;;5093303;28;20510;-73
2022/08/03 05:20:21;;;;;;;4.67;2.60;;;;;;;;;;5093182;28;20453;-73
2022/08/03 05:22:48;;;;;;;2.40;2.20;;;;;;;;;;5093254;28;20837;-73
2022/08/03 05:25:15;;;;;;;2.13;1.93;;;;;;;;;;5092933;28;20449;-73
2022/08/03 05:27:42;;;;;;;2.17;1.97;;;;;;;;;;5093151;28;20442;-73
2022/08/03 05:30:11;;;;;;;2.83;2.53;;;;;;;;;;5092852;28;20461;-73
2022/08/03 05:32:38;;;;;;;3.60;1.97;;;;;;;;;;5093040;28;20462;-73
2022/08/03 05:35:06;;;;;;;2.90;2.30;;;;;;;;;;5092877;28;20700;-73
2022/08/03 05:37:33;;;;;;;2.60;2.30;;;;;;;;;;5093108;28;20207;-73
2022/08/03 05:40:00;;;;;;;4.90;2.13;;;;;;;;;;5093135;28;20208;-73
2022/08/03 05:42:27;;;;;;;2.17;1.80;;;;;;;;;;5092836;28;20228;-73
2022/08/03 05:44:54;;;;;;;3.30;2.03;;;;;;;;;;5092899;28;20238;-73
2022/08/03 05:47:23;;;;;;;2.17;1.90;;;;;;;;;;5092848;28;20204;-73
2022/08/03 05:49:50;;;;;;;1.90;1.70;;;;;;;;;;5092991;28;20219;-73
2022/08/03 05:52:17;;;;;;;2.20;2.00;;;;;;;;;;5089063;28;20228;-74
2022/08/03 05:54:44;;;;;;;2.20;2.00;;;;;;;;;;5091379;28;20211;-73
2022/08/03 05:57:11;;;;;;;2.80;1.63;;;;;;;;;;5091446;28;20207;-73
2022/08/03 05:59:39;;;;;;;2.50;2.30;;;;;;;;;;5091243;28;20218;-73
2022/08/03 06:02:06;;;;;;;2.60;2.40;;;;;;;;;;5091410;28;20238;-73
2022/08/03 06:04:34;;;;;;;3.53;2.00;;;;;;;;;;5091076;28;20917;-73
2022/08/03 06:07:01;;;;;;;2.57;2.20;;;;;;;;;;5093186;28;20218;-73
2022/08/03 06:09:29;;;;;;;2.07;1.80;;;;;;;;;;5095251;28;20204;-73
2022/08/03 06:11:56;;;;;;;3.10;1.70;;;;;;;;;;5095201;28;20207;-73
2022/08/03 06:14:23;;;;;;;2.07;1.87;;;;;;;;;;5094901;28;20204;-73
2022/08/03 06:16:50;;;;;;;1.90;1.70;;;;;;;;;;5095837;28;20207;-73
2022/08/03 06:19:17;;;;;;;2.10;1.90;;;;;;;;;;5096230;28;20215;-73
2022/08/03 06:21:46;;;;;;;2.15;1.90;;;;;;;;;;5096339;28;20215;-73
2022/08/03 06:24:13;;;;;;;2.10;1.90;;;;;;;;;;5096078;28;20228;-73
2022/08/03 06:26:40;;;;;;;2.05;1.80;;;;;;;;;;5096105;28;20589;-71
2022/08/03 06:29:07;;;;;;;1.70;1.60;;;;;;;;;;5095989;28;20216;-71
2022/08/03 06:31:34;;;;;;;3.88;1.80;;;;;;;;;;5096182;28;20571;-71
2022/08/03 06:34:02;;;;;;;1.95;1.70;;;;;;;;;;5096014;28;20246;-71
2022/08/03 06:36:30;;;;;;;1.70;1.60;;;;;;;;;;5096347;28;20253;-71
2022/08/03 06:38:59;;;;;;;1.80;1.70;;;;;;;;;;5096412;28;20212;-71
2022/08/03 06:41:26;;;;;;;2.25;1.52;;;;;;;;;;5096181;28;20223;-71
2022/08/03 06:43:53;;;;;;;4.28;2.85;;;;;;;;;;5095869;28;20260;-71
2022/08/03 06:46:21;;;;;;;2.83;2.25;;;;;;;;;;5095844;28;20212;-71
2022/08/03 06:48:48;;;;;;;5.35;2.88;;;;;;;;;;5096089;28;20307;-71
2022/08/03 06:51:15;;;;;;;3.42;2.80;;;;;;;;;;5096039;28;20216;-71
2022/08/03 06:53:42;;;;;;;12.02;4.43;;;;;;;;;;5095769;28;20235;-71
2022/08/03 06:56:10;;;;;;;5.60;3.28;;;;;;;;;;5095947;28;20208;-72
2022/08/03 06:58:38;;;;;;;4.85;3.60;;;;;;;;;;5095731;28;20215;-72
2022/08/03 07:01:05;;;;;;;7.47;4.28;;;;;;;;;;5095896;28;20218;-73
2022/08/03 07:03:32;;;;;;;3.95;3.38;;;;;;;;;;5095356;28;20236;-74
2022/08/03 07:05:59;;;;;;;4.10;3.70;;;;;;;;;;5095909;28;20669;-74
2022/08/03 07:08:26;;;;;;;10.65;3.50;;;;;;;;;;5095723;28;20215;-74
2022/08/03 07:10:53;;;;;;;5.73;4.20;;;;;;;;;;5095932;28;20208;-74
2022/08/03 07:13:21;;;;;;;5.23;3.87;;;;;;;;;;5095490;28;20227;-74
2022/08/03 07:15:48;;;;;;;5.20;3.60;;;;;;;;;;5095540;28;20688;-74
2022/08/03 07:18:16;;;;;;;6.17;3.47;;;;;;;;;;5095463;28;20219;-74
2022/08/03 07:20:44;;;;;;;4.60;2.80;;;;;;;;;;5095663;28;20580;-74
2022/08/03 07:23:12;;;;;;;4.00;3.58;;;;;;;;;;5095561;28;20289;-74
2022/08/03 07:25:39;;;;;;;4.53;2.65;;;;;;;;;;5095170;28;20204;-72
2022/08/03 07:28:07;;;;;;;6.88;3.25;;;;;;;;;;5095373;28;20208;-72
2022/08/03 07:30:35;;;;;;;4.32;2.72;;;;;;;;;;5094807;28;20303;-73
2022/08/03 07:33:02;;;;;;;5.63;3.60;;;;;;;;;;5095365;28;20223;-74
2022/08/03 07:35:29;;;;;;;3.83;3.05;;;;;;;;;;5095029;28;20212;-74
2022/08/03 07:37:57;;;;;;;4.50;3.35;;;;;;;;;;5095187;28;20661;-74
2022/08/03 07:40:24;;;;;;;3.13;2.22;;;;;;;;;;5094904;28;20220;-74
2022/08/03 07:42:51;;;;;;;3.65;2.78;;;;;;;;;;5094901;28;20236;-74
2022/08/03 07:45:20;;;;;;;4.75;3.05;;;;;;;;;;5094611;28;20232;-75
2022/08/03 07:47:48;;;;;;;4.82;2.95;;;;;;;;;;5095087;28;20602;-74
2022/08/03 07:50:15;;;;;;;3.00;2.43;;;;;;;;;;5095230;28;20208;-74
2022/08/03 07:52:48;;;;;;;5.60;2.67;;;;;;;;;;5094735;28;20235;-74
2022/08/03 07:55:19;;;;;;;5.77;3.47;;;;;;;;;;5096503;28;20359;-74
2022/08/03 07:57:46;;;;;;;3.93;3.53;;;;;;;;;;5097341;28;20696;-74
2022/08/03 08:00:16;;;;;;;3.40;2.40;;;;;;;;;;5095797;28;20212;-74
2022/08/03 08:02:43;;;;;;;3.60;2.60;;;;;;;;;;5096005;28;20546;-74
2022/08/03 08:05:12;;;;;;;3.53;2.50;;;;;;;;;;5095452;28;20255;-74
2022/08/03 08:07:40;;;;;;;3.53;1.70;;;;;;;;;;5096893;28;20220;-74
2022/08/03 08:10:08;;;;;;;4.03;1.60;;;;;;;;;;5097053;28;20680;-74
2022/08/03 08:12:35;;;;;;;2.20;2.00;;;;;;;;;;5094300;28;20223;-74
2022/08/03 08:15:02;;;;;;;2.90;2.63;;;;;;;;;;5094370;28;20801;-74
2022/08/03 08:17:30;;;;;;;4.60;2.90;;;;;;;;;;5094328;28;20219;-74
2022/08/03 08:19:57;;;;;;;3.47;2.97;;;;;;;;;;5094397;28;20452;-74
2022/08/03 08:22:25;;;;;;;3.53;2.77;;;;;;;;;;5094089;28;20235;-74
2022/08/03 08:24:52;;;;;;;3.70;2.70;;;;;;;;;;5094000;28;20231;-74
2022/08/03 08:27:19;;;;;;;5.07;3.10;;;;;;;;;;5094076;28;20449;-74
2022/08/03 08:29:47;;;;;;;3.40;2.77;;;;;;;;;;5093244;28;20831;-74
2022/08/03 08:32:15;;;;;;;6.23;2.40;;;;;;;;;;5094020;28;20477;-73
2022/08/03 08:34:42;;;;;;;3.63;2.37;;;;;;;;;;5093869;28;20446;-74
2022/08/03 08:37:09;;;;;;;3.03;2.73;;;;;;;;;;5094052;28;20947;-74
2022/08/03 08:39:37;;;;;;;2.37;2.17;;;;;;;;;;5093820;28;20446;-74
2022/08/03 08:42:04;;;;;;;3.27;2.13;;;;;;;;;;5093828;28;20470;-74
2022/08/03 08:44:31;;;;;;;2.60;2.40;;;;;;;;;;5093442;28;20845;-74
2022/08/03 08:47:02;;;;;;;2.40;2.20;;;;;;;;;;5093852;28;20450;-74
2022/08/03 08:49:29;;;;;;;3.10;2.80;;;;;;;;;;5093768;28;20450;-74
2022/08/03 08:51:57;;;;;;;4.10;2.20;;;;;;;;;;5093813;28;20476;-74
2022/08/03 08:54:25;;;;;;;2.33;1.83;;;;;;;;;;5093564;28;20943;-74
2022/08/03 08:56:58;;;;;;;2.40;2.20;;;;;;;;;;5093754;28;20449;-74
2022/08/03 08:59:25;;;;;;;6.60;2.40;;;;;;;;;;5093572;28;20446;-74
2022/08/03 09:01:57;;;;;;;2.43;2.23;;;;;;;;;;5093764;28;20923;-73
2022/08/03 09:04:24;;;;;;;3.57;2.87;;;;;;;;;;5093336;28;20845;-73
2022/08/03 09:06:51;;;;;;;4.63;2.23;;;;;;;;;;5093499;28;20449;-73
2022/08/03 09:09:18;;;;;;;2.97;2.13;;;;;;;;;;5093456;28;20450;-73
2022/08/03 09:11:45;;;;;;;3.07;2.30;;;;;;;;;;5093380;28;20468;-73
2022/08/03 09:14:14;;;;;;;2.30;2.00;;;;;;;;;;5093039;28;20446;-73
2022/08/03 09:16:56;;;;;;;2.50;2.30;;;;;;;;;;5093327;28;20457;-73
2022/08/03 09:19:23;;;;;;;2.93;2.20;;;;;;;;;;5093294;28;20454;-73
2022/08/03 09:22:07;;;;;;;6.17;2.63;;;;;;;;;;5093261;28;20454;-73
2022/08/03 09:24:35;;;;;;;4.53;1.90;;;;;;;;;;5092913;28;20543;-73
2022/08/03 09:27:02;;;;;;;3.10;2.10;;;;;;;;;;5093333;28;20928;-73
2022/08/03 09:29:33;;;;;;;8.80;2.27;;;;;;;;;;5092704;28;20450;-73
2022/08/03 09:32:01;;;;;;;4.03;2.37;;;;;;;;;;5093156;28;20829;-73
2022/08/03 09:34:28;;;;;;;3.30;2.60;;;;;;;;;;5092939;28;20982;-73
2022/08/03 09:36:57;;;;;;;3.13;1.43;;;;;;;;;;5093312;28;20454;-74
2022/08/03 09:39:26;;;;;;;3.90;1.73;;;;;;;;;;5089622;28;20507;-74
2022/08/03 09:42:05;;;;;;;3.80;2.10;;;;;;;;;;5094602;28;20935;-74
2022/08/03 09:44:36;;;;;;;2.00;1.80;;;;;;;;;;5096943;28;20508;-73
2022/08/03 09:47:04;;;;;;;1.90;1.70;;;;;;;;;;5097403;28;20954;-73
2022/08/03 09:49:31;;;;;;;2.00;1.80;;;;;;;;;;5095999;28;20438;-73
2022/08/03 09:52:01;;;;;;;2.37;2.13;;;;;;;;;;5096611;28;20442;-73
2022/08/03 09:54:28;;;;;;;2.20;1.73;;;;;;;;;;5076325;28;20488;-73
2022/08/03 09:56:56;;;;;;;2.50;2.10;;;;;;;;;;5076661;28;20461;-73
2022/08/03 09:59:26;;;;;;;6.20;2.60;;;;;;;;;;5076448;28;20458;-73
2022/08/03 10:01:55;;;;;;;2.70;1.90;;;;;;;;;;5076410;28;20451;-73
2022/08/03 10:04:23;;;;;;;5.33;2.03;;;;;;;;;;5076063;28;20483;-73
2022/08/03 10:07:04;;;;;;;3.03;2.30;;;;;;;;;;5076533;28;20458;-73
2022/08/03 10:09:31;;;;;;;2.73;2.03;;;;;;;;;;5076329;28;20458;-73
2022/08/03 10:11:58;;;;;;;4.47;3.10;;;;;;;;;;5076283;28;20822;-73
2022/08/03 10:14:30;;;;;;;3.60;2.10;;;;;;;;;;5075994;28;20442;-73
2022/08/03 10:16:59;;;;;;;9.30;2.33;;;;;;;;;;5076404;28;20545;-73
2022/08/03 10:19:26;;;;;;;3.30;1.93;;;;;;;;;;5076104;28;20474;-74
2022/08/03 10:21:55;;;;;;;3.50;2.50;;;;;;;;;;5076128;28;20453;-74
2022/08/03 10:24:25;;;;;;;1.90;1.80;;;;;;;;;;5075711;28;20451;-74
2022/08/03 10:26:54;;;;;;;1.90;1.70;;;;;;;;;;5076119;28;20459;-74
2022/08/03 10:29:23;;;;;;;1.80;1.53;;;;;;;;;;5075496;28;20837;-74
2022/08/03 10:31:54;;;;;;;2.10;1.70;;;;;;;;;;5075780;28;20454;-73
2022/08/03 10:34:25;;;;;;;2.83;1.70;;;;;;;;;;5075627;28;20940;-73
2022/08/03 10:36:53;;;;;;;1.73;1.60;;;;;;;;;;5075867;28;20458;-73
2022/08/03 10:39:22;;;;;;;1.50;1.40;;;;;;;;;;5075573;28;20450;-73
2022/08/03 10:41:50;;;;;;;2.07;1.87;;;;;;;;;;5075613;28;20451;-73
2022/08/03 10:44:18;;;;;;;2.40;1.70;;;;;;;;;;5075185;28;20459;-73
2022/08/03 10:46:47;;;;;;;4.63;1.80;;;;;;;;;;5075736;28;20447;-73
2022/08/03 10:49:15;;;;;;;1.97;1.70;;;;;;;;;;5075469;28;20453;-73
2022/08/03 10:51:45;;;;;;;1.80;1.60;;;;;;;;;;5075693;28;20447;-73
2022/08/03 10:54:27;;;;;;;1.80;1.53;;;;;;;;;;5075107;28;20451;-74
2022/08/03 10:59:58;;;;;;;1.97;1.77;;;;;;;;;;5075745;28;20846;-74
2022/08/03 11:02:50;;;;;;;2.07;1.60;;;;;;;;;;5075232;28;20471;-74
2022/08/03 11:05:28;;;;;;;2.07;1.87;;;;;;;;;;5075166;28;20490;-74
2022/08/03 11:08:10;;;;;;;1.90;1.70;;;;;;;;;;5075417;28;20446;-74
2022/08/03 11:10:37;;;;;;;2.77;1.87;;;;;;;;;;5063110;28;20462;-74
2022/08/03 11:13:07;;;;;;;3.47;1.80;;;;;;;;;;5075508;28;20473;-74
2022/08/03 11:15:35;;;;;;;4.63;2.10;;;;;;;;;;5075028;28;20447;-74
2022/08/03 11:18:09;;;;;;;3.40;1.90;;;;;;;;;;5075387;28;20988;-74
2022/08/03 11:20:50;;;;;;;2.67;1.70;;;;;;;;;;5075426;28;20864;-74
2022/08/03 11:23:18;;;;;;;4.80;2.00;;;;;;;;;;5075030;28;20479;-74
2022/08/03 11:26:04;;;;;;;2.67;1.80;;;;;;;;;;5074678;28;20490;-74
2022/08/03 11:28:32;;;;;;;7.23;1.93;;;;;;;;;;5075115;28;20451;-74
2022/08/03 11:31:14;;;;;;;2.20;2.00;;;;;;;;;;5074889;28;20486;-74
2022/08/03 11:33:41;;;;;;;2.20;2.00;;;;;;;;;;5074590;28;20466;-74
2022/08/03 11:36:10;;;;;;;2.10;1.90;;;;;;;;;;5074863;28;20812;-74
2022/08/03 11:38:57;;;;;;;5.13;1.80;;;;;;;;;;5074689;28;20461;-74
2022/08/03 11:41:33;;;;;;;2.60;2.00;;;;;;;;;;5074677;28;20928;-74
2022/08/03 11:44:00;;;;;;;2.20;1.77;;;;;;;;;;5074570;28;20984;-74
2022/08/03 11:46:27;;;;;;;2.17;1.63;;;;;;;;;;5074493;28;20497;-74
2022/08/03 11:48:58;;;;;;;1.83;1.60;;;;;;;;;;5074817;28;20447;-74
2022/08/03 11:51:27;;;;;;;4.77;2.60;;;;;;;;;;5074781;28;20462;-74
2022/08/03 11:53:55;;;;;;;3.00;1.93;;;;;;;;;;5074446;28;20482;-74
2022/08/03 11:56:23;;;;;;;2.20;1.57;;;;;;;;;;5074705;28;20443;-75
2022/08/03 11:58:52;;;;;;;1.90;1.80;;;;;;;;;;5074741;28;20554;-74
2022/08/03 12:01:19;;;;;;;2.53;1.80;;;;;;;;;;5074675;28;20482;-74
2022/08/03 12:03:47;;;;;;;1.97;1.70;;;;;;;;;;5073702;28;20467;-73
2022/08/03 12:06:15;;;;;;;1.80;1.60;;;;;;;;;;5074331;28;20486;-74
2022/08/03 12:08:45;;;;;;;5.23;1.90;;;;;;;;;;5074504;28;20450;-74
2022/08/03 12:11:13;;;;;;;2.50;1.63;;;;;;;;;;5074413;28;20447;-74
2022/08/03 12:13:41;;;;;;;4.43;2.40;;;;;;;;;;5074057;28;20477;-73
2022/08/03 12:16:09;;;;;;;2.20;2.00;;;;;;;;;;5074155;28;20445;-74
2022/08/03 12:18:36;;;;;;;1.70;1.50;;;;;;;;;;5074228;28;20455;-74
2022/08/03 12:21:05;;;;;;;2.10;1.70;;;;;;;;;;5074216;28;20454;-74
2022/08/03 12:23:32;;;;;;;3.57;2.07;;;;;;;;;;5073800;28;20475;-73
2022/08/03 12:26:03;;;;;;;2.10;1.80;;;;;;;;;;5074094;28;20483;-77
2022/08/03 12:28:31;;;;;;;4.50;2.20;;;;;;;;;;5074520;28;20824;-74
2022/08/03 12:31:01;;;;;;;2.40;2.20;;;;;;;;;;5073878;28;20458;-76
2022/08/03 12:33:29;;;;;;;1.60;1.50;;;;;;;;;;5073852;28;20475;-74
2022/08/03 12:36:04;;;;;;;2.63;1.77;;;;;;;;;;5073473;28;20820;-74
2022/08/03 12:38:31;;;;;;;2.80;1.70;;;;;;;;;;5072004;28;20459;-74
2022/08/03 12:41:00;;;;;;;2.27;1.93;;;;;;;;;;5073144;28;20459;-73
2022/08/03 12:43:28;;;;;;;2.13;1.70;;;;;;;;;;5073587;28;20483;-73
2022/08/03 12:46:15;;;;;;;1.70;1.40;;;;;;;;;;5074181;28;20498;-74
2022/08/03 12:49:02;;;;;;;1.90;1.70;;;;;;;;;;5073852;28;20452;-73
2022/08/03 12:51:30;;;;;;;1.83;1.63;;;;;;;;;;5073422;28;20467;-74
2022/08/03 12:53:58;;;;;;;1.97;1.77;;;;;;;;;;5073691;28;20468;-73
2022/08/03 12:56:26;;;;;;;2.00;1.80;;;;;;;;;;5073867;28;20497;-74
2022/08/03 12:58:54;;;;;;;4.40;2.17;;;;;;;;;;5072880;28;20957;-73
2022/08/03 13:01:23;;;;;;;1.80;1.50;;;;;;;;;;5073444;28;20459;-74
2022/08/03 13:03:52;;;;;;;1.93;1.67;;;;;;;;;;5073111;28;20475;-73
2022/08/03 13:06:19;;;;;;;1.70;1.50;;;;;;;;;;5073488;28;20495;-74
2022/08/03 13:08:47;;;;;;;3.30;2.07;;;;;;;;;;5073007;28;20452;-73
2022/08/03 13:11:22;;;;;;;5.30;2.30;;;;;;;;;;5073042;28;20447;-73
2022/08/03 13:13:49;;;;;;;2.83;2.10;;;;;;;;;;5073078;28;20482;-73
2022/08/03 13:16:18;;;;;;;2.40;2.10;;;;;;;;;;5073109;28;20466;-74
2022/08/03 13:18:46;;;;;;;1.97;1.77;;;;;;;;;;5073224;28;20456;-75
2022/08/03 13:21:14;;;;;;;1.90;1.80;;;;;;;;;;5073495;28;20471;-74
2022/08/03 13:23:41;;;;;;;2.63;1.97;;;;;;;;;;5072740;28;20578;-74
2022/08/03 13:26:08;;;;;;;4.00;2.30;;;;;;;;;;5073164;28;20499;-73
2022/08/03 13:28:35;;;;;;;2.10;1.87;;;;;;;;;;5073000;28;20456;-74
2022/08/03 13:31:03;;;;;;;6.07;2.03;;;;;;;;;;5072291;28;20478;-73
2022/08/03 13:33:31;;;;;;;3.23;2.10;;;;;;;;;;5072608;28;20483;-73
2022/08/03 13:35:58;;;;;;;2.87;1.87;;;;;;;;;;5072396;28;20455;-74
2022/08/03 13:38:25;;;;;;;2.23;1.73;;;;;;;;;;5073308;28;20447;-74
2022/08/03 13:40:53;;;;;;;2.73;1.90;;;;;;;;;;5072893;28;20456;-74
2022/08/03 13:43:21;;;;;;;2.67;1.70;;;;;;;;;;5072632;28;20480;-74
2022/08/03 13:45:48;;;;;;;3.27;1.80;;;;;;;;;;5071864;28;20967;-74
2022/08/03 13:48:15;;;;;;;2.00;1.80;;;;;;;;;;5072688;28;20448;-73
2022/08/03 13:50:43;;;;;;;2.57;1.83;;;;;;;;;;5072682;28;20455;-73
2022/08/03 13:53:10;;;;;;;3.03;1.80;;;;;;;;;;5072326;28;20824;-73
2022/08/03 13:55:38;;;;;;;2.67;1.50;;;;;;;;;;5071707;28;20459;-73
2022/08/03 13:58:06;;;;;;;2.20;2.00;;;;;;;;;;5072842;28;20959;-73
2022/08/03 14:00:34;;;;;;;2.50;2.00;;;;;;;;;;5072947;28;20460;-74
2022/08/03 14:03:02;;;;;;;2.10;1.90;;;;;;;;;;5072486;28;20471;-73
2022/08/03 14:05:30;;;;;;;6.57;2.10;;;;;;;;;;5072260;28;20458;-73
2022/08/03 14:07:59;;;;;;;2.50;1.30;;;;;;;;;;5072690;28;20913;-74
2022/08/03 14:10:27;;;;;;;1.90;1.67;;;;;;;;;;5072798;28;20928;-74
2022/08/03 14:12:55;;;;;;;2.97;2.20;;;;;;;;;;5071275;28;20861;-74
2022/08/03 14:15:22;;;;;;;3.03;1.77;;;;;;;;;;5071673;28;20554;-75
2022/08/03 14:17:49;;;;;;;1.90;1.70;;;;;;;;;;5073063;28;20448;-74
2022/08/03 14:20:16;;;;;;;1.97;1.77;;;;;;;;;;5072232;28;20560;-74
2022/08/03 14:22:43;;;;;;;2.40;1.70;;;;;;;;;;5072345;28;20460;-75
2022/08/03 14:25:12;;;;;;;4.23;2.27;;;;;;;;;;5072349;28;20454;-74
2022/08/03 14:27:39;;;;;;;2.10;1.60;;;;;;;;;;5072990;28;20486;-73
2022/08/03 14:30:07;;;;;;;4.90;1.87;;;;;;;;;;5077217;28;20470;-74
2022/08/03 14:32:34;;;;;;;3.10;1.70;;;;;;;;;;5075222;28;20475;-73
2022/08/03 14:35:01;;;;;;;2.37;1.97;;;;;;;;;;5075323;28;20448;-73
2022/08/03 14:37:28;;;;;;;3.80;1.87;;;;;;;;;;5075106;28;20466;-73
2022/08/03 14:39:55;;;;;;;5.00;2.17;;;;;;;;;;5091613;28;20455;-74
2022/08/03 14:42:24;;;;;;;1.97;1.80;;;;;;;;;;5094060;28;21002;-74
2022/08/03 14:44:51;;;;;;;3.53;1.80;;;;;;;;;;5094966;28;20451;-74
2022/08/03 14:47:18;;;;;;;4.10;2.00;;;;;;;;;;5094649;28;20493;-73
2022/08/03 14:49:45;;;;;;;2.40;2.20;;;;;;;;;;5092533;28;20545;-73
2022/08/03 14:52:12;;;;;;;3.30;1.73;;;;;;;;;;5095790;28;20485;-74
2022/08/03 14:54:39;;;;;;;3.83;2.00;;;;;;;;;;5095236;28;20455;-74
2022/08/03 14:57:06;;;;;;;2.10;1.90;;;;;;;;;;5091935;28;20451;-74
2022/08/03 14:59:35;;;;;;;7.73;2.00;;;;;;;;;;5095375;28;20458;-74